createdAt,value
2023-02-08T00:00:38.726Z,11.75
2023-02-08T00:02:40.901Z,13.00
2023-02-08T00:04:42.960Z,12.00
2023-02-08T00:06:44.589Z,11.00
2023-02-08T00:08:46.658Z,10.00
2023-02-08T00:10:49.193Z,8.25
2023-02-08T00:12:52.145Z,13.25
2023-02-08T00:14:53.819Z,12.00
2023-02-08T00:16:55.379Z,12.50
2023-02-08T00:18:57.016Z,11.50
2023-02-08T00:20:59.017Z,6.50
2023-02-08T00:23:00.671Z,10.25
2023-02-08T00:25:03.442Z,10.00
2023-02-08T00:27:04.950Z,12.00
2023-02-08T00:29:07.829Z,10.75
2023-02-08T00:31:09.878Z,10.00
2023-02-08T00:33:12.006Z,7.50
2023-02-08T00:35:13.650Z,12.75
2023-02-08T00:37:15.293Z,12.25
2023-02-08T00:39:17.361Z,12.75
2023-02-08T00:41:19.189Z,10.00
2023-02-08T00:43:22.645Z,10.00
2023-02-08T00:45:25.824Z,10.50
2023-02-08T00:47:27.417Z,14.75
2023-02-08T00:49:28.981Z,10.50
2023-02-08T00:51:31.007Z,11.50
2023-02-08T00:53:36.390Z,11.50
2023-02-08T00:55:38.242Z,7.50
2023-02-08T00:57:39.774Z,12.75
2023-02-08T00:59:42.327Z,10.75
2023-02-08T01:01:46.041Z,10.00
2023-02-08T01:03:47.942Z,11.75
2023-02-08T01:05:51.164Z,11.25
2023-02-08T01:07:52.759Z,6.00
2023-02-08T01:09:54.789Z,11.00
2023-02-08T01:11:56.417Z,12.75
2023-02-08T01:13:58.246Z,11.25
2023-02-08T01:16:07.056Z,14.00
2023-02-08T01:18:10.538Z,11.75
2023-02-08T01:20:12.298Z,11.75
2023-02-08T01:22:15.606Z,13.00
2023-02-08T01:24:18.129Z,6.25
2023-02-08T01:26:21.708Z,13.50
2023-02-08T01:28:23.308Z,15.75
2023-02-08T01:30:25.249Z,12.75
2023-02-08T01:32:27.562Z,10.00
2023-02-08T01:34:30.765Z,13.00
2023-02-08T01:36:33.606Z,13.00
2023-02-08T01:38:36.677Z,14.75
2023-02-08T01:40:38.443Z,14.75
2023-02-08T01:42:40.649Z,13.00
2023-02-08T01:45:27.889Z,9.25
2023-02-08T01:47:30.517Z,14.25
2023-02-08T01:49:37.233Z,14.50
2023-02-08T01:51:43.337Z,9.50
2023-02-08T01:53:46.518Z,12.50
2023-02-08T01:55:52.825Z,15.00
2023-02-08T01:57:58.426Z,11.25
2023-02-08T02:00:04.394Z,13.25
2023-02-08T02:02:10.073Z,7.00
2023-02-08T02:04:12.303Z,14.75
2023-02-08T02:06:21.417Z,15.75
2023-02-08T02:08:23.013Z,7.00
2023-02-08T02:10:28.272Z,4.25
2023-02-08T02:12:31.684Z,10.00
2023-02-08T02:14:33.930Z,12.25
2023-02-08T02:16:35.752Z,4.25
2023-02-08T02:18:37.851Z,14.50
2023-02-08T02:20:53.761Z,11.25
2023-02-08T02:23:28.771Z,15.25
2023-02-08T02:25:57.077Z,12.00
2023-02-08T02:28:36.337Z,12.25
2023-02-08T02:31:16.933Z,12.00
2023-02-08T02:33:48.995Z,3.50
2023-02-08T02:35:57.852Z,13.00
2023-02-08T02:38:09.845Z,14.50
2023-02-08T02:40:20.876Z,9.25
2023-02-08T02:42:31.652Z,13.75
2023-02-08T02:44:40.912Z,15.25
2023-02-08T02:46:50.363Z,11.00
2023-02-08T02:49:01.554Z,15.00
2023-02-08T02:51:08.989Z,8.00
2023-02-08T02:53:18.038Z,12.25
2023-02-08T02:55:24.992Z,13.00
2023-02-08T02:57:31.369Z,13.00
2023-02-08T02:59:34.716Z,17.25
2023-02-08T03:01:36.820Z,12.50
2023-02-08T03:03:38.461Z,15.25
2023-02-08T03:05:41.743Z,14.75
2023-02-08T03:08:05.786Z,13.00
2023-02-08T03:10:22.827Z,16.00
2023-02-08T03:12:40.020Z,15.00
2023-02-08T03:14:55.729Z,12.25
2023-02-08T03:17:21.650Z,14.75
2023-02-08T03:19:31.992Z,15.75
2023-02-08T03:21:42.362Z,15.50
2023-02-08T03:23:54.182Z,6.25
2023-02-08T03:26:07.596Z,12.00
2023-02-08T03:28:18.788Z,15.00
2023-02-08T03:30:28.503Z,11.25
2023-02-08T03:32:39.066Z,14.00
2023-02-08T03:34:49.769Z,13.00
2023-02-08T03:36:56.692Z,9.50
2023-02-08T03:39:01.598Z,13.00
2023-02-08T03:41:07.061Z,14.00
2023-02-08T03:43:15.286Z,14.25
2023-02-08T03:45:21.793Z,15.00
2023-02-08T03:47:26.658Z,15.00
2023-02-08T03:49:33.839Z,12.50
2023-02-08T03:51:37.493Z,11.00
2023-02-08T03:53:42.658Z,9.50
2023-02-08T03:55:47.597Z,11.00
2023-02-08T03:57:55.002Z,15.50
2023-02-08T04:00:00.197Z,12.50
2023-02-08T04:02:07.198Z,10.00
2023-02-08T04:04:09.804Z,4.75
2023-02-08T04:06:11.840Z,13.25
2023-02-08T04:08:13.984Z,17.75
2023-02-08T04:10:17.182Z,14.00
2023-02-08T04:12:18.833Z,12.50
2023-02-08T04:14:20.480Z,12.00
2023-02-08T04:16:22.090Z,13.00
2023-02-08T04:18:23.944Z,16.00
2023-02-08T04:20:25.563Z,13.00
2023-02-08T04:22:27.803Z,16.00
2023-02-08T04:24:29.703Z,14.75
2023-02-08T04:26:32.927Z,17.00
2023-02-08T04:28:35.268Z,10.25
2023-02-08T04:30:37.351Z,13.75
2023-02-08T04:32:40.433Z,12.25
2023-02-08T04:34:44.174Z,15.75
2023-02-08T04:36:45.732Z,13.50
2023-02-08T04:38:47.292Z,13.75
2023-02-08T04:40:49.191Z,12.00
2023-02-08T04:42:52.097Z,17.00
2023-02-08T04:44:53.967Z,14.00
2023-02-08T04:46:56.020Z,10.50
2023-02-08T04:48:59.011Z,14.00
2023-02-08T04:51:00.775Z,11.50
2023-02-08T04:53:02.566Z,17.50
2023-02-08T04:55:04.652Z,11.00
2023-02-08T04:57:06.178Z,15.25
2023-02-08T04:59:09.315Z,15.75
2023-02-08T05:01:10.944Z,15.75
2023-02-08T05:03:13.141Z,17.00
2023-02-08T05:05:14.957Z,9.75
2023-02-08T05:07:16.540Z,13.00
2023-02-08T05:09:18.171Z,12.00
2023-02-08T05:11:20.980Z,10.50
2023-02-08T05:13:22.608Z,13.00
2023-02-08T05:15:25.593Z,9.50
2023-02-08T05:17:27.200Z,13.00
2023-02-08T05:19:29.313Z,12.50
2023-02-08T05:21:31.150Z,12.50
2023-02-08T05:23:32.916Z,12.50
2023-02-08T05:25:34.756Z,17.50
2023-02-08T05:27:36.741Z,14.50
2023-02-08T05:29:38.572Z,13.00
2023-02-08T05:31:42.178Z,14.00
2023-02-08T05:33:43.838Z,13.50
2023-02-08T05:35:45.996Z,16.50
2023-02-08T05:37:49.097Z,12.00
2023-02-08T05:39:50.639Z,13.75
2023-02-08T05:41:52.490Z,16.25
2023-02-08T05:43:54.120Z,13.00
2023-02-08T05:45:55.702Z,15.00
2023-02-08T05:47:58.997Z,15.25
2023-02-08T05:50:00.815Z,12.25
2023-02-08T05:52:02.346Z,16.00
2023-02-08T05:54:04.377Z,15.00
2023-02-08T05:56:06.648Z,12.50
2023-02-08T05:58:08.378Z,11.50
2023-02-08T06:00:11.021Z,16.50
2023-02-08T06:02:12.876Z,5.50
2023-02-08T06:04:16.245Z,10.00
2023-02-08T06:06:18.273Z,16.00
2023-02-08T06:08:20.228Z,13.50
2023-02-08T06:10:21.991Z,13.50
2023-02-08T06:12:23.945Z,9.50
2023-02-08T06:14:27.069Z,14.00
2023-02-08T06:16:28.699Z,15.75
2023-02-08T06:18:30.298Z,13.00
2023-02-08T06:20:34.946Z,12.00
2023-02-08T06:22:36.997Z,12.00
2023-02-08T06:24:38.563Z,14.25
2023-02-08T06:26:40.496Z,17.50
2023-02-08T06:28:42.171Z,15.25
2023-02-08T06:30:44.624Z,14.75
2023-02-08T06:32:46.977Z,15.00
2023-02-08T06:34:48.640Z,15.50
2023-02-08T06:36:51.610Z,15.00
2023-02-08T06:38:53.284Z,14.00
2023-02-08T06:40:55.100Z,15.00
2023-02-08T06:42:57.153Z,17.50
2023-02-08T06:44:58.770Z,14.25
2023-02-08T06:47:00.830Z,17.75
2023-02-08T06:49:02.520Z,12.25
2023-02-08T06:51:04.403Z,11.00
2023-02-08T06:53:07.828Z,11.50
2023-02-08T06:55:09.585Z,16.00
2023-02-08T06:57:11.793Z,15.75
2023-02-08T06:59:13.654Z,13.50
2023-02-08T07:01:15.602Z,17.00
2023-02-08T07:03:18.940Z,17.25
2023-02-08T07:05:20.774Z,15.00
2023-02-08T07:07:22.612Z,16.50
2023-02-08T07:09:25.798Z,15.75
2023-02-08T07:11:27.729Z,13.00
2023-02-08T07:13:29.313Z,11.50
2023-02-08T07:15:30.951Z,17.00
2023-02-08T07:17:32.620Z,15.50
2023-02-08T07:19:34.292Z,14.50
2023-02-08T07:21:36.105Z,14.00
2023-02-08T07:23:38.160Z,15.25
2023-02-08T07:25:41.257Z,12.25
2023-02-08T07:27:44.449Z,15.50
2023-02-08T07:29:46.762Z,12.75
2023-02-08T07:31:48.524Z,15.00
2023-02-08T07:33:50.527Z,17.00
2023-02-08T07:35:52.495Z,20.25
2023-02-08T07:37:54.473Z,13.50
2023-02-08T07:39:57.583Z,11.25
2023-02-08T07:42:00.690Z,16.00
2023-02-08T07:44:02.350Z,19.00
2023-02-08T07:46:08.490Z,16.50
2023-02-08T07:48:10.109Z,16.00
2023-02-08T07:50:11.740Z,15.25
2023-02-08T07:52:13.596Z,11.50
2023-02-08T07:54:15.981Z,16.50
2023-02-08T07:56:18.178Z,19.50
2023-02-08T07:58:21.408Z,14.50
2023-02-08T08:00:23.468Z,16.75
2023-02-08T08:02:25.133Z,16.00
2023-02-08T08:04:26.937Z,13.00
2023-02-08T08:06:28.885Z,15.00
2023-02-08T08:08:30.771Z,17.75
2023-02-08T08:10:32.332Z,14.25
2023-02-08T08:12:33.970Z,17.25
2023-02-08T08:14:37.051Z,15.75
2023-02-08T08:16:38.862Z,13.75
2023-02-08T08:18:40.968Z,17.25
2023-02-08T08:20:42.688Z,12.00
2023-02-08T08:22:44.569Z,18.25
2023-02-08T08:24:46.677Z,15.50
2023-02-08T08:26:48.174Z,14.75
2023-02-08T08:28:50.235Z,13.00
2023-02-08T08:30:53.380Z,15.75
2023-02-08T08:32:55.132Z,16.00
2023-02-08T08:34:56.960Z,13.00
2023-02-08T08:37:01.524Z,19.00
2023-02-08T08:39:03.729Z,19.25
2023-02-08T08:41:08.626Z,17.00
2023-02-08T08:43:10.430Z,11.25
2023-02-08T08:45:11.973Z,15.75
2023-02-08T08:47:15.423Z,14.75
2023-02-08T08:49:17.222Z,16.75
2023-02-08T08:51:19.386Z,15.25
2023-02-08T08:53:21.055Z,14.75
2023-02-08T08:55:22.854Z,15.00
2023-02-08T08:57:24.807Z,13.50
2023-02-08T08:59:26.405Z,15.25
2023-02-08T09:01:28.251Z,16.50
2023-02-08T09:03:31.479Z,18.25
2023-02-08T09:05:33.868Z,12.50
2023-02-08T09:07:35.490Z,15.50
2023-02-08T09:09:38.569Z,16.75
2023-02-08T09:11:40.163Z,10.25
2023-02-08T09:13:42.743Z,12.25
2023-02-08T09:15:44.346Z,18.67
2023-02-08T09:17:45.975Z,18.75
2023-02-08T09:19:48.966Z,18.50
2023-02-08T09:21:50.672Z,13.50
2023-02-08T09:23:52.351Z,12.33
2023-02-08T09:25:54.458Z,17.50
2023-02-08T09:27:56.030Z,16.75
2023-02-08T09:29:57.825Z,16.00
2023-02-08T09:32:00.157Z,17.33
2023-02-08T09:34:02.226Z,13.33
2023-02-08T09:36:06.084Z,17.67
2023-02-08T09:38:07.733Z,17.00
2023-02-08T09:40:21.357Z,18.67
2023-02-08T09:42:33.201Z,15.33
2023-02-08T09:44:48.149Z,18.67
2023-02-08T09:46:58.276Z,9.67
2023-02-08T09:49:05.299Z,14.67
2023-02-08T09:51:14.988Z,18.67
2023-02-08T09:53:21.349Z,18.00
2023-02-08T09:55:32.580Z,17.67
2023-02-08T09:57:37.147Z,18.00
2023-02-08T09:59:46.976Z,19.33
2023-02-08T10:01:51.169Z,19.00
2023-02-08T10:03:56.540Z,17.33
2023-02-08T10:05:58.771Z,14.67
2023-02-08T10:08:02.105Z,16.33
2023-02-08T10:10:06.690Z,19.00
2023-02-08T10:12:17.561Z,16.00
2023-02-08T10:14:43.587Z,16.00
2023-02-08T10:16:59.889Z,20.00
2023-02-08T10:19:12.036Z,15.00
2023-02-08T10:21:28.868Z,20.00
2023-02-08T10:24:14.147Z,17.33
2023-02-08T10:26:29.391Z,15.00
2023-02-08T10:28:54.769Z,16.67
2023-02-08T10:31:02.956Z,18.00
2023-02-08T10:33:13.104Z,18.67
2023-02-08T10:35:26.450Z,13.00
2023-02-08T10:37:32.057Z,20.00
2023-02-08T10:39:36.983Z,16.00
2023-02-08T10:41:38.504Z,17.00
2023-02-08T10:43:45.052Z,16.33
2023-02-08T10:45:53.898Z,21.00
2023-02-08T10:47:58.523Z,19.33
2023-02-08T10:50:03.001Z,13.00
2023-02-08T10:52:05.150Z,21.00
2023-02-08T10:54:06.785Z,19.00
2023-02-08T10:56:33.333Z,17.67
2023-02-08T10:58:36.855Z,21.33
2023-02-08T11:00:39.249Z,16.00
2023-02-08T11:02:42.551Z,18.33
2023-02-08T11:04:58.155Z,13.67
2023-02-08T11:07:20.633Z,18.67
2023-02-08T11:09:26.359Z,18.00
2023-02-08T11:11:35.360Z,17.33
2023-02-08T11:13:39.593Z,17.00
2023-02-08T11:15:46.564Z,20.00
2023-02-08T11:17:54.733Z,17.67
2023-02-08T11:20:01.409Z,17.33
2023-02-08T11:22:04.579Z,17.33
2023-02-08T11:24:27.781Z,17.67
2023-02-08T11:26:36.371Z,18.67
2023-02-08T11:28:37.999Z,15.33
2023-02-08T11:30:39.820Z,20.33
2023-02-08T11:32:42.435Z,18.00
2023-02-08T11:34:44.106Z,22.67
2023-02-08T11:36:47.315Z,22.33
2023-02-08T11:38:48.850Z,22.33
2023-02-08T11:40:50.900Z,19.67
2023-02-08T11:42:54.428Z,13.33
2023-02-08T11:44:58.032Z,24.00
2023-02-08T11:47:02.767Z,16.33
2023-02-08T11:49:04.676Z,22.33
2023-02-08T11:51:07.199Z,19.33
2023-02-08T11:53:20.722Z,20.00
2023-02-08T11:55:24.792Z,19.33
2023-02-08T11:57:26.947Z,17.33
2023-02-08T11:59:31.060Z,19.33
2023-02-08T12:01:35.010Z,18.00
2023-02-08T12:03:39.191Z,20.67
2023-02-08T12:05:49.091Z,18.33
2023-02-08T12:08:04.589Z,20.00
2023-02-08T12:10:26.807Z,18.33
2023-02-08T12:12:38.597Z,20.00
2023-02-08T12:14:52.530Z,18.00
2023-02-08T12:17:12.688Z,15.33
2023-02-08T12:19:43.282Z,18.00
2023-02-08T12:21:47.150Z,17.00
2023-02-08T12:23:54.228Z,17.33
2023-02-08T12:26:07.148Z,21.00
2023-02-08T12:28:16.711Z,17.33
2023-02-08T12:30:30.126Z,17.33
2023-02-08T12:32:52.885Z,17.00
2023-02-08T12:35:13.409Z,18.00
2023-02-08T12:37:26.804Z,18.33
2023-02-08T12:39:43.345Z,19.00
2023-02-08T12:41:53.071Z,17.33
2023-02-08T12:44:05.222Z,18.33
2023-02-08T12:46:25.115Z,17.00
2023-02-08T12:48:41.302Z,18.00
2023-02-08T12:50:52.750Z,20.33
2023-02-08T12:53:00.858Z,18.67
2023-02-08T12:55:13.673Z,16.00
2023-02-08T12:57:19.786Z,12.67
2023-02-08T12:59:27.824Z,17.33
2023-02-08T13:01:34.571Z,18.00
2023-02-08T13:03:43.209Z,17.33
2023-02-08T13:06:01.786Z,18.67
2023-02-08T13:08:17.134Z,17.33
2023-02-08T13:10:24.485Z,15.67
2023-02-08T13:12:30.662Z,18.33
2023-02-08T13:14:36.216Z,17.67
2023-02-08T13:16:43.828Z,17.00
2023-02-08T13:18:51.927Z,18.33
2023-02-08T13:20:58.491Z,17.00
2023-02-08T13:23:04.237Z,16.33
2023-02-08T13:25:16.550Z,19.00
2023-02-08T13:27:21.008Z,18.67
2023-02-08T13:29:28.100Z,17.00
2023-02-08T13:31:33.992Z,17.67
2023-02-08T13:33:59.323Z,20.00
2023-02-08T13:36:04.323Z,19.33
2023-02-08T13:38:17.091Z,15.67
2023-02-08T13:40:21.490Z,18.67
2023-02-08T13:42:29.227Z,19.00
2023-02-08T13:44:34.270Z,14.67
2023-02-08T13:46:38.073Z,20.00
2023-02-08T13:48:58.703Z,18.00
2023-02-08T13:51:00.267Z,13.00
2023-02-08T13:53:02.397Z,18.67
2023-02-08T13:55:44.126Z,21.33
2023-02-08T13:57:53.587Z,20.00
2023-02-08T14:00:21.367Z,19.67
2023-02-08T14:02:26.534Z,16.67
2023-02-08T14:04:43.884Z,21.00
2023-02-08T14:06:49.724Z,19.67
2023-02-08T14:08:58.449Z,16.67
2023-02-08T14:11:14.177Z,21.00
2023-02-08T14:13:27.220Z,16.33
2023-02-08T14:15:37.506Z,18.33
2023-02-08T14:17:43.482Z,17.00
2023-02-08T14:19:57.832Z,21.00
2023-02-08T14:22:02.819Z,16.67
2023-02-08T14:24:06.970Z,18.33
2023-02-08T14:26:18.764Z,19.00
2023-02-08T14:28:27.342Z,20.33
2023-02-08T14:30:32.150Z,19.33
2023-02-08T14:32:37.353Z,20.00
2023-02-08T14:34:40.823Z,17.67
2023-02-08T14:36:43.979Z,20.67
2023-02-08T14:39:09.042Z,21.00
2023-02-08T14:41:10.675Z,17.00
2023-02-08T14:43:31.780Z,21.00
2023-02-08T14:45:36.154Z,19.33
2023-02-08T14:48:22.444Z,21.00
2023-02-08T14:50:31.149Z,17.00
2023-02-08T14:52:35.510Z,17.00
2023-02-08T14:54:46.610Z,18.33
2023-02-08T14:56:56.158Z,19.00
2023-02-08T14:59:01.923Z,19.67
2023-02-08T15:01:08.161Z,20.00
2023-02-08T15:03:16.979Z,14.33
2023-02-08T15:05:24.190Z,11.33
2023-02-08T15:07:33.579Z,16.33
2023-02-08T15:09:40.400Z,21.33
2023-02-08T15:11:42.811Z,20.33
2023-02-08T15:13:49.389Z,19.00
2023-02-08T15:15:54.021Z,19.00
2023-02-08T15:17:57.007Z,18.00
2023-02-08T15:19:59.682Z,20.00
2023-02-08T15:22:17.286Z,18.00
2023-02-08T15:24:20.362Z,20.33
2023-02-08T15:26:24.978Z,19.00
2023-02-08T15:28:29.288Z,21.00
2023-02-08T15:30:39.931Z,24.67
2023-02-08T15:32:41.501Z,24.33
2023-02-08T15:34:46.739Z,15.00
2023-02-08T15:36:52.823Z,18.67
2023-02-08T15:38:56.315Z,18.33
2023-02-08T15:41:04.161Z,19.67
2023-02-08T15:43:13.356Z,20.67
2023-02-08T15:45:27.268Z,21.67
2023-02-08T15:47:32.709Z,11.67
2023-02-08T15:49:37.209Z,19.33
2023-02-08T15:51:39.185Z,20.00
2023-02-08T15:53:43.506Z,19.00
2023-02-08T15:55:49.184Z,20.67
2023-02-08T15:57:57.116Z,22.00
2023-02-08T16:00:01.180Z,20.33
2023-02-08T16:02:19.196Z,21.67
2023-02-08T16:04:21.946Z,22.00
2023-02-08T16:06:26.047Z,17.00
2023-02-08T16:08:31.182Z,22.67
2023-02-08T16:10:38.690Z,16.00
2023-02-08T16:12:40.370Z,22.00
2023-02-08T16:14:52.186Z,14.67
2023-02-08T16:16:58.055Z,22.33
2023-02-08T16:19:01.152Z,19.33
2023-02-08T16:21:04.926Z,24.00
2023-02-08T16:23:25.404Z,23.25
2023-02-08T16:25:44.439Z,19.50
2023-02-08T16:27:48.536Z,21.25
2023-02-08T16:29:50.391Z,22.75
2023-02-08T16:32:00.355Z,26.50
2023-02-08T16:34:04.883Z,22.75
2023-02-08T16:36:06.861Z,23.00
2023-02-08T16:38:10.030Z,25.50
2023-02-08T16:40:44.509Z,18.50
2023-02-08T16:42:46.456Z,23.25
2023-02-08T16:45:17.066Z,22.25
2023-02-08T16:47:27.347Z,26.00
2023-02-08T16:49:29.117Z,26.75
2023-02-08T16:51:32.904Z,15.25
2023-02-08T16:53:42.015Z,25.00
2023-02-08T16:55:44.901Z,20.25
2023-02-08T16:57:49.031Z,23.00
2023-02-08T16:59:52.403Z,27.00
2023-02-08T17:01:54.093Z,27.25
2023-02-08T17:03:57.396Z,17.75
2023-02-08T17:06:00.453Z,23.25
2023-02-08T17:08:04.457Z,23.00
2023-02-08T17:10:08.441Z,26.00
2023-02-08T17:12:21.552Z,19.25
2023-02-08T17:14:24.289Z,19.50
2023-02-08T17:16:27.858Z,22.75
2023-02-08T17:18:29.691Z,22.50
2023-02-08T17:20:34.837Z,22.50
2023-02-08T17:22:36.366Z,19.25
2023-02-08T17:24:39.868Z,18.25
2023-02-08T17:26:43.917Z,21.50
2023-02-08T17:28:46.484Z,23.00
2023-02-08T17:30:49.455Z,22.75
2023-02-08T17:32:51.555Z,23.00
2023-02-08T17:34:53.134Z,25.50
2023-02-08T17:36:56.169Z,23.25
2023-02-08T17:38:58.662Z,18.75
2023-02-08T17:41:03.244Z,21.50
2023-02-08T17:43:06.034Z,25.75
2023-02-08T17:45:09.054Z,26.50
2023-02-08T17:47:10.934Z,24.00
2023-02-08T17:49:12.747Z,22.75
2023-02-08T17:51:16.744Z,24.25
2023-02-08T17:53:19.999Z,22.25
2023-02-08T17:55:22.070Z,22.25
2023-02-08T17:57:23.621Z,26.50
2023-02-08T17:59:26.275Z,24.00
2023-02-08T18:01:28.358Z,24.75
2023-02-08T18:03:29.977Z,25.50
2023-02-08T18:05:31.866Z,21.75
2023-02-08T18:07:33.756Z,19.25
2023-02-08T18:09:37.525Z,27.25
2023-02-08T18:11:39.136Z,19.50
2023-02-08T18:13:41.156Z,24.25
2023-02-08T18:15:43.530Z,23.50
2023-02-08T18:17:46.484Z,25.25
2023-02-08T18:19:48.301Z,26.75
2023-02-08T18:21:52.125Z,24.75
2023-02-08T18:23:54.271Z,22.25
2023-02-08T18:26:05.882Z,25.75
2023-02-08T18:28:07.527Z,23.25
2023-02-08T18:30:11.252Z,23.75
2023-02-08T18:32:13.387Z,26.50
2023-02-08T18:34:14.988Z,18.50
2023-02-08T18:36:16.724Z,27.00
2023-02-08T18:38:18.424Z,26.25
2023-02-08T18:40:20.174Z,23.75
2023-02-08T18:42:23.357Z,28.00
2023-02-08T18:44:24.960Z,23.75
2023-02-08T18:46:28.486Z,24.50
2023-02-08T18:48:30.310Z,26.75
2023-02-08T18:50:31.930Z,19.75
2023-02-08T18:52:34.075Z,26.00
2023-02-08T18:54:37.974Z,23.25
2023-02-08T18:56:41.021Z,25.75
2023-02-08T18:58:44.215Z,27.25
2023-02-08T19:00:45.793Z,27.25
2023-02-08T19:02:47.717Z,10.75
2023-02-08T19:04:49.613Z,20.00
2023-02-08T19:06:51.460Z,29.50
2023-02-08T19:08:55.597Z,27.75
2023-02-08T19:10:57.653Z,18.25
2023-02-08T19:12:59.508Z,25.00
2023-02-08T19:15:02.416Z,20.50
2023-02-08T19:17:04.304Z,26.25
2023-02-08T19:19:07.029Z,26.00
2023-02-08T19:21:11.547Z,26.50
2023-02-08T19:23:13.069Z,23.50
2023-02-08T19:25:14.798Z,26.75
2023-02-08T19:27:16.454Z,23.50
2023-02-08T19:29:19.049Z,24.75
2023-02-08T19:31:23.242Z,25.00
2023-02-08T19:33:25.320Z,22.00
2023-02-08T19:35:27.112Z,23.25
2023-02-08T19:37:28.759Z,23.25
2023-02-08T19:39:30.300Z,10.75
2023-02-08T19:41:34.757Z,21.25
2023-02-08T19:43:36.882Z,21.25
2023-02-08T19:45:38.488Z,23.00
2023-02-08T19:47:50.985Z,22.00
2023-02-08T19:49:56.769Z,23.00
2023-02-08T19:51:58.945Z,26.50
2023-02-08T19:54:01.957Z,26.50
2023-02-08T19:56:06.694Z,25.50
2023-02-08T19:58:08.549Z,25.50
2023-02-08T20:00:23.011Z,26.75
2023-02-08T20:02:25.962Z,25.00
2023-02-08T20:04:28.885Z,20.00
2023-02-08T20:06:33.115Z,26.75
2023-02-08T20:08:34.648Z,16.50
2023-02-08T20:10:37.689Z,20.75
2023-02-08T20:12:39.613Z,28.75
2023-02-08T20:14:41.194Z,19.00
2023-02-08T20:16:42.788Z,17.25
2023-02-08T20:18:44.874Z,19.75
2023-02-08T20:20:59.220Z,22.25
2023-02-08T20:23:01.363Z,19.00
2023-02-08T20:25:03.706Z,24.00
2023-02-08T20:27:05.409Z,24.00
2023-02-08T20:29:08.744Z,25.25
2023-02-08T20:31:12.824Z,22.25
2023-02-08T20:33:15.768Z,19.50
2023-02-08T20:35:18.044Z,24.75
2023-02-08T20:37:20.954Z,17.25
2023-02-08T20:39:22.731Z,23.00
2023-02-08T20:41:27.054Z,20.75
2023-02-08T20:43:28.550Z,21.75
2023-02-08T20:45:30.085Z,23.50
2023-02-08T20:47:33.819Z,22.25
2023-02-08T20:49:38.111Z,22.25
2023-02-08T20:51:39.624Z,24.25
2023-02-08T20:53:44.246Z,20.00
2023-02-08T20:55:46.224Z,25.50
2023-02-08T20:57:47.989Z,20.00
2023-02-08T20:59:50.803Z,21.25
2023-02-08T21:01:52.573Z,22.00
2023-02-08T21:03:56.012Z,22.75
2023-02-08T21:05:57.577Z,21.75
2023-02-08T21:07:59.188Z,18.50
2023-02-08T21:10:02.126Z,20.25
2023-02-08T21:12:04.978Z,24.25
2023-02-08T21:14:10.442Z,9.50
2023-02-08T21:16:12.179Z,19.50
2023-02-08T21:18:14.095Z,18.00
2023-02-08T21:20:15.778Z,20.50
2023-02-08T21:22:17.603Z,25.75
2023-02-08T21:24:19.361Z,19.75
2023-02-08T21:26:22.296Z,22.75
2023-02-08T21:28:24.291Z,23.00
2023-02-08T21:30:25.930Z,18.00
2023-02-08T21:32:27.527Z,20.75
2023-02-08T21:34:29.154Z,22.25
2023-02-08T21:36:30.845Z,19.00
2023-02-08T21:38:35.361Z,19.50
2023-02-08T21:40:36.926Z,22.00
2023-02-08T21:42:39.913Z,18.00
2023-02-08T21:44:41.565Z,22.00
2023-02-08T21:46:43.500Z,22.00
2023-02-08T21:48:46.133Z,21.00
2023-02-08T21:50:47.647Z,21.75
2023-02-08T21:52:49.541Z,20.50
2023-02-08T21:54:51.214Z,18.50
2023-02-08T21:56:52.833Z,22.25
2023-02-08T21:58:55.733Z,19.25
2023-02-08T22:00:57.365Z,17.25
2023-02-08T22:02:59.000Z,18.75
2023-02-08T22:05:02.214Z,19.75
2023-02-08T22:07:04.803Z,18.00
2023-02-08T22:09:06.464Z,13.50
2023-02-08T22:11:08.977Z,14.25
2023-02-08T22:13:11.095Z,20.25
2023-02-08T22:15:15.870Z,19.50
2023-02-08T22:17:17.706Z,18.00
2023-02-08T22:19:19.837Z,22.50
2023-02-08T22:21:21.693Z,21.00
2023-02-08T22:23:25.237Z,19.50
2023-02-08T22:25:26.875Z,18.50
2023-02-08T22:27:28.940Z,17.25
2023-02-08T22:29:30.659Z,17.25
2023-02-08T22:31:33.849Z,14.75
2023-02-08T22:33:35.925Z,19.50
2023-02-08T22:35:39.316Z,19.75
2023-02-08T22:37:41.316Z,21.50
2023-02-08T22:39:43.054Z,17.50
2023-02-08T22:41:44.796Z,19.75
2023-02-08T22:43:46.377Z,15.75
2023-02-08T22:45:56.744Z,16.00
2023-02-08T22:47:59.651Z,19.75
2023-02-08T22:50:01.365Z,19.00
2023-02-08T22:52:06.548Z,7.25
2023-02-08T22:54:08.121Z,18.00
2023-02-08T22:56:13.035Z,17.25
2023-02-08T22:58:14.896Z,16.00
2023-02-08T23:00:19.408Z,18.25
2023-02-08T23:02:21.463Z,16.00
2023-02-08T23:04:24.402Z,18.50
2023-02-08T23:06:26.014Z,19.75
2023-02-08T23:08:27.951Z,19.00
2023-02-08T23:10:29.994Z,18.50
2023-02-08T23:12:33.794Z,19.00
2023-02-08T23:14:35.612Z,14.25
2023-02-08T23:16:37.715Z,21.75
2023-02-08T23:18:39.437Z,18.00
2023-02-08T23:20:42.735Z,26.00
2023-02-08T23:22:44.517Z,16.50
2023-02-08T23:24:46.363Z,16.00
2023-02-08T23:26:47.913Z,16.50
2023-02-08T23:28:50.978Z,19.00
2023-02-08T23:30:52.971Z,16.25
2023-02-08T23:32:54.676Z,16.25
2023-02-08T23:34:56.464Z,14.75
2023-02-08T23:36:59.363Z,16.25
2023-02-08T23:39:01.156Z,18.00
2023-02-08T23:41:03.881Z,13.50
2023-02-08T23:43:05.738Z,17.75
2023-02-08T23:45:08.557Z,10.50
2023-02-08T23:47:10.332Z,16.25
2023-02-08T23:49:11.943Z,14.25
2023-02-08T23:51:14.576Z,18.00
2023-02-08T23:53:17.785Z,15.00
2023-02-08T23:55:19.554Z,15.00
2023-02-08T23:57:21.732Z,17.25
2023-02-08T23:59:23.310Z,15.25
